sensor_id;sensor_type;location;lat;lon;timestamp;P1;durP1;ratioP1;P2;durP2;ratioP2
69629;SDS011;56857;52.212;5.496;2024-03-17T00:01:40;17.55;;;9.13;;
69629;SDS011;56857;52.212;5.496;2024-03-17T00:04:06;16.80;;;8.98;;
69629;SDS011;56857;52.212;5.496;2024-03-17T00:06:32;18.08;;;8.98;;
69629;SDS011;56857;52.212;5.496;2024-03-17T00:08:58;17.83;;;10.00;;
69629;SDS011;56857;52.212;5.496;2024-03-17T00:11:23;19.38;;;10.85;;
69629;SDS011;56857;52.212;5.496;2024-03-17T00:13:48;19.45;;;8.30;;
69629;SDS011;56857;52.212;5.496;2024-03-17T00:16:14;15.88;;;9.40;;
69629;SDS011;56857;52.212;5.496;2024-03-17T00:18:39;17.80;;;9.20;;
69629;SDS011;56857;52.212;5.496;2024-03-17T00:21:05;15.85;;;9.63;;
69629;SDS011;56857;52.212;5.496;2024-03-17T00:23:30;16.83;;;8.05;;
69629;SDS011;56857;52.212;5.496;2024-03-17T00:25:56;18.40;;;10.23;;
69629;SDS011;56857;52.212;5.496;2024-03-17T00:28:21;14.88;;;8.93;;
69629;SDS011;56857;52.212;5.496;2024-03-17T00:30:46;14.73;;;8.90;;
69629;SDS011;56857;52.212;5.496;2024-03-17T00:33:12;15.45;;;8.75;;
69629;SDS011;56857;52.212;5.496;2024-03-17T00:35:37;18.77;;;9.95;;
69629;SDS011;56857;52.212;5.496;2024-03-17T00:38:02;16.67;;;8.50;;
69629;SDS011;56857;52.212;5.496;2024-03-17T00:40:28;15.75;;;9.13;;
69629;SDS011;56857;52.212;5.496;2024-03-17T00:42:53;17.88;;;9.55;;
69629;SDS011;56857;52.212;5.496;2024-03-17T00:45:18;17.65;;;8.45;;
69629;SDS011;56857;52.212;5.496;2024-03-17T00:47:44;16.33;;;8.02;;
69629;SDS011;56857;52.212;5.496;2024-03-17T00:50:09;16.10;;;8.20;;
69629;SDS011;56857;52.212;5.496;2024-03-17T00:52:34;14.60;;;8.25;;
69629;SDS011;56857;52.212;5.496;2024-03-17T00:55:00;10.40;;;7.10;;
69629;SDS011;56857;52.212;5.496;2024-03-17T00:57:26;14.38;;;7.70;;
69629;SDS011;56857;52.212;5.496;2024-03-17T00:59:51;12.93;;;7.10;;
69629;SDS011;56857;52.212;5.496;2024-03-17T01:02:16;13.00;;;7.53;;
69629;SDS011;56857;52.212;5.496;2024-03-17T01:04:45;14.85;;;6.47;;
69629;SDS011;56857;52.212;5.496;2024-03-17T01:07:11;12.65;;;6.63;;
69629;SDS011;56857;52.212;5.496;2024-03-17T01:09:37;10.52;;;6.00;;
69629;SDS011;56857;52.212;5.496;2024-03-17T01:12:03;12.90;;;6.55;;
69629;SDS011;56857;52.212;5.496;2024-03-17T01:14:29;12.93;;;5.93;;
69629;SDS011;56857;52.212;5.496;2024-03-17T01:16:55;13.90;;;5.40;;
69629;SDS011;56857;52.212;5.496;2024-03-17T01:19:21;10.35;;;5.90;;
69629;SDS011;56857;52.212;5.496;2024-03-17T01:21:46;12.90;;;5.50;;
69629;SDS011;56857;52.212;5.496;2024-03-17T01:24:12;13.07;;;4.70;;
69629;SDS011;56857;52.212;5.496;2024-03-17T01:26:37;11.73;;;5.30;;
69629;SDS011;56857;52.212;5.496;2024-03-17T01:29:02;11.98;;;4.97;;
69629;SDS011;56857;52.212;5.496;2024-03-17T01:31:28;8.60;;;4.67;;
69629;SDS011;56857;52.212;5.496;2024-03-17T01:33:53;12.57;;;5.72;;
69629;SDS011;56857;52.212;5.496;2024-03-17T01:36:18;13.05;;;5.40;;
69629;SDS011;56857;52.212;5.496;2024-03-17T01:38:44;12.23;;;5.47;;
69629;SDS011;56857;52.212;5.496;2024-03-17T01:41:09;11.88;;;5.10;;
69629;SDS011;56857;52.212;5.496;2024-03-17T01:43:34;12.93;;;5.53;;
69629;SDS011;56857;52.212;5.496;2024-03-17T01:46:00;10.80;;;4.95;;
69629;SDS011;56857;52.212;5.496;2024-03-17T01:48:25;8.30;;;4.95;;
69629;SDS011;56857;52.212;5.496;2024-03-17T01:50:52;13.73;;;5.55;;
69629;SDS011;56857;52.212;5.496;2024-03-17T01:53:20;14.70;;;5.35;;
69629;SDS011;56857;52.212;5.496;2024-03-17T01:55:47;10.48;;;4.65;;
69629;SDS011;56857;52.212;5.496;2024-03-17T01:58:12;12.30;;;6.20;;
69629;SDS011;56857;52.212;5.496;2024-03-17T02:00:38;16.02;;;5.85;;
69629;SDS011;56857;52.212;5.496;2024-03-17T02:03:05;12.27;;;5.07;;
69629;SDS011;56857;52.212;5.496;2024-03-17T02:05:31;10.20;;;4.95;;
69629;SDS011;56857;52.212;5.496;2024-03-17T02:07:57;12.77;;;5.65;;
69629;SDS011;56857;52.212;5.496;2024-03-17T02:10:23;9.90;;;4.65;;
69629;SDS011;56857;52.212;5.496;2024-03-17T02:12:48;12.30;;;5.75;;
69629;SDS011;56857;52.212;5.496;2024-03-17T02:15:14;11.52;;;5.57;;
69629;SDS011;56857;52.212;5.496;2024-03-17T02:17:39;11.07;;;5.03;;
69629;SDS011;56857;52.212;5.496;2024-03-17T02:20:05;15.63;;;5.75;;
69629;SDS011;56857;52.212;5.496;2024-03-17T02:22:31;11.32;;;5.95;;
69629;SDS011;56857;52.212;5.496;2024-03-17T02:24:56;16.43;;;6.40;;
69629;SDS011;56857;52.212;5.496;2024-03-17T02:27:21;15.00;;;6.07;;
69629;SDS011;56857;52.212;5.496;2024-03-17T02:29:47;17.35;;;6.32;;
69629;SDS011;56857;52.212;5.496;2024-03-17T02:32:12;13.00;;;5.65;;
69629;SDS011;56857;52.212;5.496;2024-03-17T02:34:38;14.77;;;6.30;;
69629;SDS011;56857;52.212;5.496;2024-03-17T02:37:04;17.38;;;6.88;;
69629;SDS011;56857;52.212;5.496;2024-03-17T02:39:30;11.45;;;6.13;;
69629;SDS011;56857;52.212;5.496;2024-03-17T02:41:56;14.35;;;6.78;;
69629;SDS011;56857;52.212;5.496;2024-03-17T02:44:21;12.47;;;6.63;;
69629;SDS011;56857;52.212;5.496;2024-03-17T02:46:46;15.02;;;6.80;;
69629;SDS011;56857;52.212;5.496;2024-03-17T02:49:11;12.57;;;6.93;;
69629;SDS011;56857;52.212;5.496;2024-03-17T02:51:37;13.65;;;6.88;;
69629;SDS011;56857;52.212;5.496;2024-03-17T02:54:02;12.10;;;6.80;;
69629;SDS011;56857;52.212;5.496;2024-03-17T02:56:27;11.98;;;6.85;;
69629;SDS011;56857;52.212;5.496;2024-03-17T02:58:53;13.63;;;6.53;;
69629;SDS011;56857;52.212;5.496;2024-03-17T03:01:18;14.38;;;7.22;;
69629;SDS011;56857;52.212;5.496;2024-03-17T03:03:43;14.82;;;7.28;;
69629;SDS011;56857;52.212;5.496;2024-03-17T03:06:09;15.95;;;7.40;;
69629;SDS011;56857;52.212;5.496;2024-03-17T03:08:40;14.68;;;7.38;;
69629;SDS011;56857;52.212;5.496;2024-03-17T03:13:32;12.55;;;6.13;;
69629;SDS011;56857;52.212;5.496;2024-03-17T03:15:58;11.25;;;6.13;;
69629;SDS011;56857;52.212;5.496;2024-03-17T03:18:23;12.77;;;7.43;;
69629;SDS011;56857;52.212;5.496;2024-03-17T03:20:51;11.23;;;6.53;;
69629;SDS011;56857;52.212;5.496;2024-03-17T03:23:17;15.18;;;5.32;;
69629;SDS011;56857;52.212;5.496;2024-03-17T03:25:42;14.33;;;6.63;;
69629;SDS011;56857;52.212;5.496;2024-03-17T03:28:07;11.57;;;6.82;;
69629;SDS011;56857;52.212;5.496;2024-03-17T03:30:35;10.73;;;6.72;;
69629;SDS011;56857;52.212;5.496;2024-03-17T03:33:01;12.63;;;6.43;;
69629;SDS011;56857;52.212;5.496;2024-03-17T03:35:29;15.40;;;6.80;;
69629;SDS011;56857;52.212;5.496;2024-03-17T03:37:55;12.35;;;5.90;;
69629;SDS011;56857;52.212;5.496;2024-03-17T03:40:20;12.07;;;6.38;;
69629;SDS011;56857;52.212;5.496;2024-03-17T03:42:45;12.15;;;6.43;;
69629;SDS011;56857;52.212;5.496;2024-03-17T03:45:11;15.48;;;8.30;;
69629;SDS011;56857;52.212;5.496;2024-03-17T03:47:36;13.68;;;6.15;;
69629;SDS011;56857;52.212;5.496;2024-03-17T03:50:02;12.52;;;5.93;;
69629;SDS011;56857;52.212;5.496;2024-03-17T03:52:27;14.40;;;6.00;;
69629;SDS011;56857;52.212;5.496;2024-03-17T03:54:52;13.60;;;6.07;;
69629;SDS011;56857;52.212;5.496;2024-03-17T03:57:18;13.60;;;6.43;;
69629;SDS011;56857;52.212;5.496;2024-03-17T03:59:43;15.15;;;6.45;;
69629;SDS011;56857;52.212;5.496;2024-03-17T04:02:08;14.38;;;7.00;;
69629;SDS011;56857;52.212;5.496;2024-03-17T04:04:33;12.75;;;6.47;;
69629;SDS011;56857;52.212;5.496;2024-03-17T04:07:00;14.00;;;6.13;;
69629;SDS011;56857;52.212;5.496;2024-03-17T04:09:26;16.88;;;6.97;;
69629;SDS011;56857;52.212;5.496;2024-03-17T04:11:51;10.00;;;6.40;;
69629;SDS011;56857;52.212;5.496;2024-03-17T04:14:16;10.50;;;6.28;;
69629;SDS011;56857;52.212;5.496;2024-03-17T04:16:42;12.10;;;6.30;;
69629;SDS011;56857;52.212;5.496;2024-03-17T04:19:07;12.30;;;6.20;;
69629;SDS011;56857;52.212;5.496;2024-03-17T04:21:32;13.43;;;6.50;;
69629;SDS011;56857;52.212;5.496;2024-03-17T04:23:57;13.90;;;6.80;;
69629;SDS011;56857;52.212;5.496;2024-03-17T04:26:23;12.88;;;6.90;;
69629;SDS011;56857;52.212;5.496;2024-03-17T04:28:48;13.45;;;6.35;;
69629;SDS011;56857;52.212;5.496;2024-03-17T04:31:13;12.18;;;6.72;;
69629;SDS011;56857;52.212;5.496;2024-03-17T04:33:39;11.63;;;6.60;;
69629;SDS011;56857;52.212;5.496;2024-03-17T04:36:04;15.10;;;6.83;;
69629;SDS011;56857;52.212;5.496;2024-03-17T04:38:30;14.40;;;6.18;;
69629;SDS011;56857;52.212;5.496;2024-03-17T04:40:55;15.40;;;7.35;;
69629;SDS011;56857;52.212;5.496;2024-03-17T04:43:20;14.47;;;7.43;;
69629;SDS011;56857;52.212;5.496;2024-03-17T04:45:46;14.27;;;6.85;;
69629;SDS011;56857;52.212;5.496;2024-03-17T04:48:11;11.27;;;7.15;;
69629;SDS011;56857;52.212;5.496;2024-03-17T04:50:36;12.93;;;7.38;;
69629;SDS011;56857;52.212;5.496;2024-03-17T04:53:01;16.48;;;8.43;;
69629;SDS011;56857;52.212;5.496;2024-03-17T04:55:27;16.05;;;7.28;;
69629;SDS011;56857;52.212;5.496;2024-03-17T04:57:52;15.05;;;7.93;;
69629;SDS011;56857;52.212;5.496;2024-03-17T05:00:18;15.75;;;8.02;;
69629;SDS011;56857;52.212;5.496;2024-03-17T05:02:44;14.30;;;7.80;;
69629;SDS011;56857;52.212;5.496;2024-03-17T05:05:09;14.90;;;8.60;;
69629;SDS011;56857;52.212;5.496;2024-03-17T05:07:35;16.45;;;8.07;;
69629;SDS011;56857;52.212;5.496;2024-03-17T05:10:00;12.10;;;8.18;;
69629;SDS011;56857;52.212;5.496;2024-03-17T05:12:25;13.75;;;8.32;;
69629;SDS011;56857;52.212;5.496;2024-03-17T05:14:51;14.63;;;8.07;;
69629;SDS011;56857;52.212;5.496;2024-03-17T05:17:16;14.13;;;8.88;;
69629;SDS011;56857;52.212;5.496;2024-03-17T05:19:41;15.90;;;8.52;;
69629;SDS011;56857;52.212;5.496;2024-03-17T05:22:07;15.55;;;8.63;;
69629;SDS011;56857;52.212;5.496;2024-03-17T05:24:32;19.50;;;8.50;;
69629;SDS011;56857;52.212;5.496;2024-03-17T05:26:57;13.57;;;8.40;;
69629;SDS011;56857;52.212;5.496;2024-03-17T05:29:23;15.05;;;7.97;;
69629;SDS011;56857;52.212;5.496;2024-03-17T05:31:48;14.88;;;9.23;;
69629;SDS011;56857;52.212;5.496;2024-03-17T05:34:14;15.10;;;7.53;;
69629;SDS011;56857;52.212;5.496;2024-03-17T05:36:40;13.73;;;8.68;;
69629;SDS011;56857;52.212;5.496;2024-03-17T05:39:05;16.40;;;8.63;;
69629;SDS011;56857;52.212;5.496;2024-03-17T05:41:31;14.98;;;9.63;;
69629;SDS011;56857;52.212;5.496;2024-03-17T05:43:56;18.70;;;9.02;;
69629;SDS011;56857;52.212;5.496;2024-03-17T05:46:21;16.45;;;9.25;;
69629;SDS011;56857;52.212;5.496;2024-03-17T05:48:47;13.20;;;8.35;;
69629;SDS011;56857;52.212;5.496;2024-03-17T05:51:12;13.93;;;8.40;;
69629;SDS011;56857;52.212;5.496;2024-03-17T05:53:38;14.70;;;8.32;;
69629;SDS011;56857;52.212;5.496;2024-03-17T05:56:04;13.30;;;8.18;;
69629;SDS011;56857;52.212;5.496;2024-03-17T05:58:30;17.88;;;9.30;;
69629;SDS011;56857;52.212;5.496;2024-03-17T06:00:55;19.92;;;9.27;;
69629;SDS011;56857;52.212;5.496;2024-03-17T06:03:21;16.55;;;8.82;;
69629;SDS011;56857;52.212;5.496;2024-03-17T06:05:47;16.70;;;9.13;;
69629;SDS011;56857;52.212;5.496;2024-03-17T06:08:12;16.42;;;9.05;;
69629;SDS011;56857;52.212;5.496;2024-03-17T06:10:42;14.80;;;8.73;;
69629;SDS011;56857;52.212;5.496;2024-03-17T06:13:09;14.88;;;8.07;;
69629;SDS011;56857;52.212;5.496;2024-03-17T06:15:34;13.80;;;8.70;;
69629;SDS011;56857;52.212;5.496;2024-03-17T06:18:03;14.85;;;8.57;;
69629;SDS011;56857;52.212;5.496;2024-03-17T06:20:28;16.02;;;8.90;;
69629;SDS011;56857;52.212;5.496;2024-03-17T06:22:53;15.05;;;9.63;;
69629;SDS011;56857;52.212;5.496;2024-03-17T06:25:19;16.25;;;9.68;;
69629;SDS011;56857;52.212;5.496;2024-03-17T06:27:44;13.13;;;8.55;;
69629;SDS011;56857;52.212;5.496;2024-03-17T06:30:10;14.02;;;8.93;;
69629;SDS011;56857;52.212;5.496;2024-03-17T06:32:37;17.92;;;8.73;;
69629;SDS011;56857;52.212;5.496;2024-03-17T06:35:02;19.20;;;10.55;;
69629;SDS011;56857;52.212;5.496;2024-03-17T06:37:28;20.33;;;8.68;;
69629;SDS011;56857;52.212;5.496;2024-03-17T06:39:53;15.23;;;7.88;;
69629;SDS011;56857;52.212;5.496;2024-03-17T06:42:18;15.82;;;10.15;;
69629;SDS011;56857;52.212;5.496;2024-03-17T06:44:44;17.27;;;9.73;;
69629;SDS011;56857;52.212;5.496;2024-03-17T06:47:09;15.88;;;9.18;;
69629;SDS011;56857;52.212;5.496;2024-03-17T06:49:35;17.38;;;9.27;;
69629;SDS011;56857;52.212;5.496;2024-03-17T06:52:00;14.15;;;9.23;;
69629;SDS011;56857;52.212;5.496;2024-03-17T06:54:25;18.52;;;10.23;;
69629;SDS011;56857;52.212;5.496;2024-03-17T06:56:51;15.77;;;9.43;;
69629;SDS011;56857;52.212;5.496;2024-03-17T06:59:16;14.68;;;9.30;;
69629;SDS011;56857;52.212;5.496;2024-03-17T07:01:41;17.17;;;9.38;;
69629;SDS011;56857;52.212;5.496;2024-03-17T07:04:06;17.23;;;9.95;;
69629;SDS011;56857;52.212;5.496;2024-03-17T07:06:32;18.63;;;10.10;;
69629;SDS011;56857;52.212;5.496;2024-03-17T07:08:57;15.50;;;9.25;;
69629;SDS011;56857;52.212;5.496;2024-03-17T07:11:22;15.43;;;9.03;;
69629;SDS011;56857;52.212;5.496;2024-03-17T07:13:48;16.63;;;9.55;;
69629;SDS011;56857;52.212;5.496;2024-03-17T07:16:13;14.82;;;9.68;;
69629;SDS011;56857;52.212;5.496;2024-03-17T07:18:38;16.98;;;10.45;;
69629;SDS011;56857;52.212;5.496;2024-03-17T07:21:04;14.63;;;9.20;;
69629;SDS011;56857;52.212;5.496;2024-03-17T07:23:29;14.75;;;10.20;;
69629;SDS011;56857;52.212;5.496;2024-03-17T07:25:56;17.38;;;10.23;;
69629;SDS011;56857;52.212;5.496;2024-03-17T07:28:23;13.93;;;9.23;;
69629;SDS011;56857;52.212;5.496;2024-03-17T07:30:52;13.88;;;8.35;;
69629;SDS011;56857;52.212;5.496;2024-03-17T07:33:22;20.33;;;10.32;;
69629;SDS011;56857;52.212;5.496;2024-03-17T07:35:52;15.85;;;9.63;;
69629;SDS011;56857;52.212;5.496;2024-03-17T07:38:19;16.10;;;9.98;;
69629;SDS011;56857;52.212;5.496;2024-03-17T07:40:45;17.50;;;10.68;;
69629;SDS011;56857;52.212;5.496;2024-03-17T07:43:20;16.25;;;9.80;;
69629;SDS011;56857;52.212;5.496;2024-03-17T07:45:45;16.10;;;9.98;;
69629;SDS011;56857;52.212;5.496;2024-03-17T07:48:11;19.55;;;10.73;;
69629;SDS011;56857;52.212;5.496;2024-03-17T07:50:36;18.17;;;9.57;;
69629;SDS011;56857;52.212;5.496;2024-03-17T07:53:01;18.70;;;10.68;;
69629;SDS011;56857;52.212;5.496;2024-03-17T07:55:26;16.38;;;9.68;;
69629;SDS011;56857;52.212;5.496;2024-03-17T07:57:52;20.52;;;10.07;;
69629;SDS011;56857;52.212;5.496;2024-03-17T08:00:17;16.55;;;9.52;;
69629;SDS011;56857;52.212;5.496;2024-03-17T08:02:45;24.10;;;9.73;;
69629;SDS011;56857;52.212;5.496;2024-03-17T08:05:11;14.52;;;9.40;;
69629;SDS011;56857;52.212;5.496;2024-03-17T08:07:36;13.93;;;8.98;;
69629;SDS011;56857;52.212;5.496;2024-03-17T08:10:01;15.02;;;9.05;;
69629;SDS011;56857;52.212;5.496;2024-03-17T08:12:30;15.88;;;8.75;;
69629;SDS011;56857;52.212;5.496;2024-03-17T08:14:55;14.00;;;8.70;;
69629;SDS011;56857;52.212;5.496;2024-03-17T08:17:20;14.70;;;8.63;;
69629;SDS011;56857;52.212;5.496;2024-03-17T08:19:46;15.60;;;8.23;;
69629;SDS011;56857;52.212;5.496;2024-03-17T08:22:12;13.48;;;8.45;;
69629;SDS011;56857;52.212;5.496;2024-03-17T08:24:37;13.15;;;8.18;;
69629;SDS011;56857;52.212;5.496;2024-03-17T08:27:02;14.75;;;9.40;;
69629;SDS011;56857;52.212;5.496;2024-03-17T08:29:28;16.13;;;9.05;;
69629;SDS011;56857;52.212;5.496;2024-03-17T08:31:53;14.30;;;9.00;;
69629;SDS011;56857;52.212;5.496;2024-03-17T08:34:18;12.70;;;8.52;;
69629;SDS011;56857;52.212;5.496;2024-03-17T08:36:44;15.52;;;8.50;;
69629;SDS011;56857;52.212;5.496;2024-03-17T08:39:09;13.70;;;8.90;;
69629;SDS011;56857;52.212;5.496;2024-03-17T08:41:34;15.07;;;8.23;;
69629;SDS011;56857;52.212;5.496;2024-03-17T08:44:00;12.43;;;7.93;;
69629;SDS011;56857;52.212;5.496;2024-03-17T08:46:25;11.90;;;7.68;;
69629;SDS011;56857;52.212;5.496;2024-03-17T08:48:50;13.38;;;8.23;;
69629;SDS011;56857;52.212;5.496;2024-03-17T08:51:16;15.02;;;8.30;;
69629;SDS011;56857;52.212;5.496;2024-03-17T08:53:41;12.63;;;8.60;;
69629;SDS011;56857;52.212;5.496;2024-03-17T08:56:06;13.10;;;8.02;;
69629;SDS011;56857;52.212;5.496;2024-03-17T08:58:31;12.13;;;8.20;;
69629;SDS011;56857;52.212;5.496;2024-03-17T09:00:57;13.85;;;7.97;;
69629;SDS011;56857;52.212;5.496;2024-03-17T09:03:22;11.00;;;6.25;;
69629;SDS011;56857;52.212;5.496;2024-03-17T09:05:48;13.90;;;7.68;;
69629;SDS011;56857;52.212;5.496;2024-03-17T09:08:17;10.95;;;6.20;;
69629;SDS011;56857;52.212;5.496;2024-03-17T09:10:43;11.27;;;7.70;;
69629;SDS011;56857;52.212;5.496;2024-03-17T09:13:30;13.75;;;6.90;;
69629;SDS011;56857;52.212;5.496;2024-03-17T09:15:58;13.65;;;7.78;;
69629;SDS011;56857;52.212;5.496;2024-03-17T09:18:24;12.90;;;7.70;;
69629;SDS011;56857;52.212;5.496;2024-03-17T09:23:22;12.75;;;7.05;;
69629;SDS011;56857;52.212;5.496;2024-03-17T09:28:22;12.23;;;7.13;;
69629;SDS011;56857;52.212;5.496;2024-03-17T09:30:47;12.70;;;8.15;;
69629;SDS011;56857;52.212;5.496;2024-03-17T09:33:12;12.40;;;7.38;;
69629;SDS011;56857;52.212;5.496;2024-03-17T09:35:38;11.55;;;7.32;;
69629;SDS011;56857;52.212;5.496;2024-03-17T09:38:03;13.80;;;7.80;;
69629;SDS011;56857;52.212;5.496;2024-03-17T09:40:28;12.88;;;7.43;;
69629;SDS011;56857;52.212;5.496;2024-03-17T09:42:54;14.47;;;8.10;;
69629;SDS011;56857;52.212;5.496;2024-03-17T09:45:20;14.68;;;7.45;;
69629;SDS011;56857;52.212;5.496;2024-03-17T09:47:48;14.13;;;6.43;;
69629;SDS011;56857;52.212;5.496;2024-03-17T09:50:13;13.35;;;7.28;;
69629;SDS011;56857;52.212;5.496;2024-03-17T09:52:39;12.65;;;7.30;;
69629;SDS011;56857;52.212;5.496;2024-03-17T09:55:17;15.18;;;7.72;;
69629;SDS011;56857;52.212;5.496;2024-03-17T09:57:43;11.95;;;7.60;;
69629;SDS011;56857;52.212;5.496;2024-03-17T10:00:13;13.02;;;7.43;;
69629;SDS011;56857;52.212;5.496;2024-03-17T10:02:46;13.43;;;7.53;;
69629;SDS011;56857;52.212;5.496;2024-03-17T10:05:19;12.68;;;6.85;;
69629;SDS011;56857;52.212;5.496;2024-03-17T10:07:45;12.57;;;7.25;;
69629;SDS011;56857;52.212;5.496;2024-03-17T10:10:11;12.80;;;7.60;;
69629;SDS011;56857;52.212;5.496;2024-03-17T10:12:37;13.25;;;7.85;;
69629;SDS011;56857;52.212;5.496;2024-03-17T10:15:02;12.37;;;7.50;;
69629;SDS011;56857;52.212;5.496;2024-03-17T10:17:34;12.45;;;7.68;;
69629;SDS011;56857;52.212;5.496;2024-03-17T10:22:56;13.05;;;7.30;;
69629;SDS011;56857;52.212;5.496;2024-03-17T10:25:23;13.45;;;7.70;;
69629;SDS011;56857;52.212;5.496;2024-03-17T10:27:48;13.90;;;7.75;;
69629;SDS011;56857;52.212;5.496;2024-03-17T10:30:17;12.38;;;7.63;;
69629;SDS011;56857;52.212;5.496;2024-03-17T10:32:43;12.77;;;6.85;;
69629;SDS011;56857;52.212;5.496;2024-03-17T10:38:00;12.38;;;6.97;;
69629;SDS011;56857;52.212;5.496;2024-03-17T10:40:27;11.85;;;7.22;;
69629;SDS011;56857;52.212;5.496;2024-03-17T10:42:54;12.23;;;7.05;;
69629;SDS011;56857;52.212;5.496;2024-03-17T10:45:19;12.18;;;7.05;;
69629;SDS011;56857;52.212;5.496;2024-03-17T10:47:47;13.70;;;7.05;;
69629;SDS011;56857;52.212;5.496;2024-03-17T10:50:18;13.35;;;7.38;;
69629;SDS011;56857;52.212;5.496;2024-03-17T10:52:45;10.93;;;6.72;;
69629;SDS011;56857;52.212;5.496;2024-03-17T10:55:18;11.98;;;6.72;;
69629;SDS011;56857;52.212;5.496;2024-03-17T10:57:46;12.27;;;6.93;;
69629;SDS011;56857;52.212;5.496;2024-03-17T11:00:12;13.68;;;6.80;;
69629;SDS011;56857;52.212;5.496;2024-03-17T11:02:38;11.25;;;6.65;;
69629;SDS011;56857;52.212;5.496;2024-03-17T11:05:09;12.82;;;6.82;;
69629;SDS011;56857;52.212;5.496;2024-03-17T11:07:39;14.15;;;7.00;;
69629;SDS011;56857;52.212;5.496;2024-03-17T11:10:05;17.08;;;7.38;;
69629;SDS011;56857;52.212;5.496;2024-03-17T11:12:44;10.63;;;6.28;;
69629;SDS011;56857;52.212;5.496;2024-03-17T11:17:49;10.60;;;5.85;;
69629;SDS011;56857;52.212;5.496;2024-03-17T11:20:24;13.52;;;6.65;;
69629;SDS011;56857;52.212;5.496;2024-03-17T11:22:52;11.18;;;6.20;;
69629;SDS011;56857;52.212;5.496;2024-03-17T11:39:02;12.05;;;5.57;;
69629;SDS011;56857;52.212;5.496;2024-03-17T11:44:15;10.73;;;5.60;;
69629;SDS011;56857;52.212;5.496;2024-03-17T11:46:44;11.10;;;6.38;;
69629;SDS011;56857;52.212;5.496;2024-03-17T11:49:16;9.73;;;6.07;;
69629;SDS011;56857;52.212;5.496;2024-03-17T11:51:45;10.98;;;5.85;;
69629;SDS011;56857;52.212;5.496;2024-03-17T11:54:13;12.57;;;6.80;;
69629;SDS011;56857;52.212;5.496;2024-03-17T11:56:40;9.80;;;5.82;;
69629;SDS011;56857;52.212;5.496;2024-03-17T11:59:05;10.68;;;6.13;;
69629;SDS011;56857;52.212;5.496;2024-03-17T12:01:31;11.73;;;6.45;;
69629;SDS011;56857;52.212;5.496;2024-03-17T12:03:56;13.27;;;6.10;;
69629;SDS011;56857;52.212;5.496;2024-03-17T12:06:23;11.75;;;5.05;;
69629;SDS011;56857;52.212;5.496;2024-03-17T12:08:49;11.88;;;6.18;;
69629;SDS011;56857;52.212;5.496;2024-03-17T12:11:17;12.85;;;6.00;;
69629;SDS011;56857;52.212;5.496;2024-03-17T12:13:43;11.52;;;5.55;;
69629;SDS011;56857;52.212;5.496;2024-03-17T12:16:12;9.27;;;5.72;;
69629;SDS011;56857;52.212;5.496;2024-03-17T12:18:38;11.40;;;6.53;;
69629;SDS011;56857;52.212;5.496;2024-03-17T12:21:03;10.77;;;6.80;;
69629;SDS011;56857;52.212;5.496;2024-03-17T12:23:28;14.00;;;6.40;;
69629;SDS011;56857;52.212;5.496;2024-03-17T12:25:54;10.98;;;6.07;;
69629;SDS011;56857;52.212;5.496;2024-03-17T12:28:19;13.48;;;6.15;;
69629;SDS011;56857;52.212;5.496;2024-03-17T12:30:45;10.30;;;6.60;;
69629;SDS011;56857;52.212;5.496;2024-03-17T12:33:10;9.63;;;6.20;;
69629;SDS011;56857;52.212;5.496;2024-03-17T12:35:38;11.55;;;6.53;;
69629;SDS011;56857;52.212;5.496;2024-03-17T12:38:19;14.30;;;6.60;;
69629;SDS011;56857;52.212;5.496;2024-03-17T12:40:45;10.65;;;6.45;;
69629;SDS011;56857;52.212;5.496;2024-03-17T12:43:12;11.57;;;6.32;;
69629;SDS011;56857;52.212;5.496;2024-03-17T12:45:37;11.73;;;6.18;;
69629;SDS011;56857;52.212;5.496;2024-03-17T12:48:03;11.88;;;5.22;;
69629;SDS011;56857;52.212;5.496;2024-03-17T12:50:28;11.32;;;5.85;;
69629;SDS011;56857;52.212;5.496;2024-03-17T12:52:54;11.57;;;7.57;;
69629;SDS011;56857;52.212;5.496;2024-03-17T12:55:20;12.45;;;6.75;;
69629;SDS011;56857;52.212;5.496;2024-03-17T12:57:47;13.40;;;6.40;;
69629;SDS011;56857;52.212;5.496;2024-03-17T13:00:21;12.75;;;7.88;;
69629;SDS011;56857;52.212;5.496;2024-03-17T13:02:48;10.68;;;6.70;;
69629;SDS011;56857;52.212;5.496;2024-03-17T13:07:42;11.43;;;6.75;;
69629;SDS011;56857;52.212;5.496;2024-03-17T13:10:09;14.30;;;6.72;;
69629;SDS011;56857;52.212;5.496;2024-03-17T13:12:34;11.95;;;7.05;;
69629;SDS011;56857;52.212;5.496;2024-03-17T13:15:00;10.65;;;7.25;;
69629;SDS011;56857;52.212;5.496;2024-03-17T13:17:25;12.13;;;6.70;;
69629;SDS011;56857;52.212;5.496;2024-03-17T13:19:51;13.67;;;6.90;;
69629;SDS011;56857;52.212;5.496;2024-03-17T13:22:16;11.80;;;7.55;;
69629;SDS011;56857;52.212;5.496;2024-03-17T13:24:41;11.53;;;7.13;;
69629;SDS011;56857;52.212;5.496;2024-03-17T13:27:06;13.60;;;7.90;;
69629;SDS011;56857;52.212;5.496;2024-03-17T13:29:32;11.95;;;6.35;;
69629;SDS011;56857;52.212;5.496;2024-03-17T13:31:57;12.68;;;6.75;;
69629;SDS011;56857;52.212;5.496;2024-03-17T13:34:22;11.63;;;7.07;;
69629;SDS011;56857;52.212;5.496;2024-03-17T13:36:48;14.02;;;7.20;;
69629;SDS011;56857;52.212;5.496;2024-03-17T13:39:13;12.73;;;7.55;;
69629;SDS011;56857;52.212;5.496;2024-03-17T13:41:38;11.00;;;6.60;;
69629;SDS011;56857;52.212;5.496;2024-03-17T13:44:04;11.30;;;7.70;;
69629;SDS011;56857;52.212;5.496;2024-03-17T13:46:29;11.63;;;7.53;;
69629;SDS011;56857;52.212;5.496;2024-03-17T13:48:54;11.52;;;6.55;;
69629;SDS011;56857;52.212;5.496;2024-03-17T13:51:32;12.25;;;7.30;;
69629;SDS011;56857;52.212;5.496;2024-03-17T13:53:57;12.52;;;7.25;;
69629;SDS011;56857;52.212;5.496;2024-03-17T13:56:22;10.80;;;7.70;;
69629;SDS011;56857;52.212;5.496;2024-03-17T13:58:49;11.47;;;5.87;;
69629;SDS011;56857;52.212;5.496;2024-03-17T14:01:15;11.10;;;6.90;;
69629;SDS011;56857;52.212;5.496;2024-03-17T14:03:40;12.18;;;7.22;;
69629;SDS011;56857;52.212;5.496;2024-03-17T14:06:05;13.52;;;6.57;;
69629;SDS011;56857;52.212;5.496;2024-03-17T14:08:31;14.75;;;7.35;;
69629;SDS011;56857;52.212;5.496;2024-03-17T14:10:57;12.55;;;7.05;;
69629;SDS011;56857;52.212;5.496;2024-03-17T14:13:22;12.50;;;7.40;;
69629;SDS011;56857;52.212;5.496;2024-03-17T14:15:48;12.48;;;6.80;;
69629;SDS011;56857;52.212;5.496;2024-03-17T14:18:13;14.80;;;7.90;;
69629;SDS011;56857;52.212;5.496;2024-03-17T14:20:38;14.38;;;7.43;;
69629;SDS011;56857;52.212;5.496;2024-03-17T14:23:04;12.15;;;7.20;;
69629;SDS011;56857;52.212;5.496;2024-03-17T14:25:29;12.07;;;7.65;;
69629;SDS011;56857;52.212;5.496;2024-03-17T14:27:54;12.55;;;7.20;;
69629;SDS011;56857;52.212;5.496;2024-03-17T14:30:20;15.35;;;7.43;;
69629;SDS011;56857;52.212;5.496;2024-03-17T14:32:45;12.30;;;7.00;;
69629;SDS011;56857;52.212;5.496;2024-03-17T14:35:15;13.80;;;6.32;;
69629;SDS011;56857;52.212;5.496;2024-03-17T14:37:42;11.48;;;7.40;;
69629;SDS011;56857;52.212;5.496;2024-03-17T14:40:08;11.90;;;7.78;;
69629;SDS011;56857;52.212;5.496;2024-03-17T14:42:37;12.30;;;6.78;;
69629;SDS011;56857;52.212;5.496;2024-03-17T14:45:02;12.90;;;7.40;;
69629;SDS011;56857;52.212;5.496;2024-03-17T14:47:28;13.05;;;7.28;;
69629;SDS011;56857;52.212;5.496;2024-03-17T14:49:53;11.15;;;6.97;;
69629;SDS011;56857;52.212;5.496;2024-03-17T14:52:19;13.27;;;7.10;;
69629;SDS011;56857;52.212;5.496;2024-03-17T14:54:44;12.75;;;7.70;;
69629;SDS011;56857;52.212;5.496;2024-03-17T14:57:09;12.30;;;7.47;;
69629;SDS011;56857;52.212;5.496;2024-03-17T14:59:34;11.73;;;7.45;;
69629;SDS011;56857;52.212;5.496;2024-03-17T15:02:00;11.10;;;7.57;;